Time;durP1;ratioP1;P1;durP2;ratioP2;P2;SDS_P1;SDS_P2;PMS_P1;PMS_P2;Temp;Humidity;BMP_temperature;BMP_pressure;BME280_temperature;BME280_humidity;BME280_pressure;Samples;Min_cycle;Max_cycle;Signal;HPM_P1;HPM_P2
2020/12/20 00:00:37;;;;;;;6.00;4.60;;;8.20;99.90;;;;;;4992577;28;20177;-44
2020/12/20 00:03:04;;;;;;;5.93;5.03;;;8.20;99.90;;;;;;4979864;28;20233;-50
2020/12/20 00:05:29;;;;;;;6.43;5.07;;;8.20;99.90;;;;;;5002979;28;20217;-48
2020/12/20 00:07:55;;;;;;;6.70;4.87;;;8.20;99.90;;;;;;4982243;28;20204;-51
2020/12/20 00:10:22;;;;;;;7.83;4.67;;;8.20;99.90;;;;;;4991383;28;20189;-48
2020/12/20 00:12:48;;;;;;;5.60;4.90;;;8.20;99.90;;;;;;4995969;28;20203;-47
2020/12/20 00:15:14;;;;;;;5.20;4.47;;;8.30;99.90;;;;;;4981418;28;20204;-47
2020/12/20 00:17:44;;;;;;;5.93;4.57;;;8.30;99.90;;;;;;4983730;28;20185;-46
2020/12/20 00:20:10;;;;;;;5.77;4.47;;;8.30;99.90;;;;;;4978871;28;20914;-47
2020/12/20 00:22:36;;;;;;;5.10;4.60;;;8.30;99.90;;;;;;4990198;28;20236;-50
2020/12/20 00:25:02;;;;;;;5.10;4.27;;;8.30;99.90;;;;;;5000423;28;20199;-49
2020/12/20 00:27:28;;;;;;;6.03;4.60;;;8.30;99.90;;;;;;5002400;28;20187;-46
2020/12/20 00:29:54;;;;;;;5.97;4.40;;;8.30;99.90;;;;;;4989419;28;20200;-50
2020/12/20 00:32:19;;;;;;;4.67;4.17;;;8.30;99.90;;;;;;4992834;28;20172;-49
2020/12/20 00:34:45;;;;;;;5.27;4.77;;;8.30;99.90;;;;;;5003698;28;20727;-47
2020/12/20 00:37:13;;;;;;;5.40;4.63;;;8.20;99.90;;;;;;4998960;28;20318;-46
2020/12/20 00:39:38;;;;;;;5.63;4.17;;;8.20;99.90;;;;;;4986980;28;20196;-49
2020/12/20 00:42:06;;;;;;;4.60;4.07;;;8.10;99.90;;;;;;4999052;28;20621;-50
2020/12/20 00:44:32;;;;;;;4.33;3.93;;;8.10;99.90;;;;;;4992815;28;20300;-48
2020/12/20 00:46:59;;;;;;;5.40;4.40;;;8.10;99.90;;;;;;4993143;28;20193;-49
2020/12/20 00:49:26;;;;;;;5.77;4.13;;;8.00;99.90;;;;;;4999668;28;20177;-46
2020/12/20 00:51:53;;;;;;;6.40;4.70;;;7.90;99.90;;;;;;4991350;28;20200;-52
2020/12/20 00:54:18;;;;;;;5.97;4.60;;;7.90;99.90;;;;;;4988016;28;20212;-51
2020/12/20 00:56:45;;;;;;;5.03;4.00;;;7.90;99.90;;;;;;5001671;28;20198;-50
2020/12/20 00:59:12;;;;;;;6.90;4.30;;;7.80;99.90;;;;;;4998280;28;20349;-50
2020/12/20 01:01:37;;;;;;;6.90;4.57;;;7.80;99.90;;;;;;4986571;28;20219;-48
2020/12/20 01:04:03;;;;;;;5.87;4.73;;;7.80;99.90;;;;;;4984374;28;20260;-51
2020/12/20 01:06:28;;;;;;;6.60;4.60;;;7.70;99.90;;;;;;4989450;28;20177;-45
2020/12/20 01:08:54;;;;;;;7.40;4.33;;;7.70;99.90;;;;;;4995063;28;20191;-47
2020/12/20 01:11:20;;;;;;;5.50;4.43;;;7.60;99.90;;;;;;4987302;28;20247;-47
2020/12/20 01:13:49;;;;;;;6.57;4.87;;;7.60;99.90;;;;;;5003004;28;20192;-51
2020/12/20 01:16:22;;;;;;;4.73;4.03;;;7.60;99.90;;;;;;4991104;28;20185;-46
2020/12/20 01:18:48;;;;;;;5.03;4.10;;;7.50;99.90;;;;;;4990917;28;20177;-51
2020/12/20 01:21:14;;;;;;;6.13;4.47;;;7.50;99.90;;;;;;4979457;28;20170;-45
2020/12/20 01:23:40;;;;;;;8.70;4.77;;;7.50;99.90;;;;;;4983476;28;20539;-45
2020/12/20 01:26:06;;;;;;;5.67;4.23;;;7.40;99.90;;;;;;4977765;28;20200;-48
2020/12/20 01:28:32;;;;;;;5.43;4.93;;;7.30;99.90;;;;;;5003117;28;20203;-45
2020/12/20 01:30:58;;;;;;;6.07;4.70;;;7.30;99.90;;;;;;4998321;28;20187;-47
2020/12/20 01:33:23;;;;;;;6.03;4.53;;;7.20;99.90;;;;;;4991103;28;20184;-47
2020/12/20 01:35:49;;;;;;;4.87;4.37;;;7.20;99.90;;;;;;4984205;28;20213;-47
2020/12/20 01:38:15;;;;;;;5.60;4.10;;;7.10;99.90;;;;;;4989261;28;20197;-52
2020/12/20 01:40:41;;;;;;;5.10;4.60;;;7.10;99.90;;;;;;4993620;28;20235;-48
2020/12/20 01:43:06;;;;;;;6.53;4.57;;;7.10;99.90;;;;;;4985920;28;20236;-44
2020/12/20 01:45:31;;;;;;;4.70;4.10;;;7.10;99.90;;;;;;5000456;28;20204;-45
2020/12/20 01:47:57;;;;;;;6.10;5.07;;;7.10;99.90;;;;;;4987402;28;20196;-48
2020/12/20 01:50:23;;;;;;;6.70;4.57;;;7.00;99.90;;;;;;4990852;28;20270;-48
2020/12/20 01:52:49;;;;;;;7.07;5.03;;;7.00;99.90;;;;;;4982501;28;20591;-50
2020/12/20 01:55:18;;;;;;;7.13;4.53;;;7.00;99.90;;;;;;4978173;28;20280;-45
2020/12/20 01:57:44;;;;;;;4.90;4.20;;;6.90;99.90;;;;;;4990540;28;20207;-47
2020/12/20 02:00:09;;;;;;;6.80;4.67;;;6.90;99.90;;;;;;4989974;28;20185;-47
2020/12/20 02:02:34;;;;;;;5.23;4.40;;;6.90;99.90;;;;;;4982652;28;20857;-47
2020/12/20 02:05:01;;;;;;;5.33;4.37;;;6.80;99.90;;;;;;4979923;28;20216;-53
2020/12/20 02:07:26;;;;;;;6.80;4.17;;;6.80;99.90;;;;;;4984416;28;20212;-46
2020/12/20 02:09:53;;;;;;;4.70;3.97;;;6.80;99.90;;;;;;4980896;28;20198;-50
2020/12/20 02:12:18;;;;;;;6.87;4.30;;;6.70;99.90;;;;;;4987063;28;20189;-46
2020/12/20 02:14:43;;;;;;;5.50;4.33;;;6.70;99.90;;;;;;4997503;28;20220;-49
2020/12/20 02:17:09;;;;;;;6.53;4.43;;;6.70;99.90;;;;;;4994074;28;20230;-49
2020/12/20 02:19:34;;;;;;;4.53;4.13;;;6.60;99.90;;;;;;4985622;28;22905;-46
2020/12/20 02:22:00;;;;;;;6.80;4.47;;;6.60;99.90;;;;;;4999647;28;20899;-44
2020/12/20 02:24:26;;;;;;;8.10;4.50;;;6.60;99.90;;;;;;4982892;28;20201;-50
2020/12/20 02:26:52;;;;;;;5.60;3.93;;;6.50;99.90;;;;;;4978320;28;20216;-46
2020/12/20 02:29:18;;;;;;;6.73;4.30;;;6.50;99.90;;;;;;4993980;28;20190;-48
2020/12/20 02:31:44;;;;;;;5.97;4.73;;;6.40;99.90;;;;;;4985776;28;20168;-47
2020/12/20 02:34:10;;;;;;;7.73;5.37;;;6.40;99.90;;;;;;5004833;28;20204;-49
2020/12/20 02:36:37;;;;;;;4.73;4.20;;;6.40;99.90;;;;;;4985602;28;20821;-45
2020/12/20 02:39:07;;;;;;;4.57;4.07;;;6.40;99.90;;;;;;5000109;28;20177;-45
2020/12/20 02:41:33;;;;;;;5.00;4.53;;;6.40;99.90;;;;;;5001628;28;20223;-45
2020/12/20 02:43:59;;;;;;;6.57;4.50;;;6.40;99.90;;;;;;4992812;28;20248;-46
2020/12/20 02:46:26;;;;;;;4.87;4.13;;;6.40;99.90;;;;;;5000087;28;20184;-45
2020/12/20 02:48:51;;;;;;;6.50;4.57;;;6.30;99.90;;;;;;4996580;28;20185;-44
2020/12/20 02:51:17;;;;;;;6.00;4.13;;;6.30;99.90;;;;;;4995076;28;20552;-43
2020/12/20 02:53:42;;;;;;;5.83;4.60;;;6.30;99.90;;;;;;4994853;28;20168;-45
2020/12/20 02:56:08;;;;;;;4.90;4.40;;;6.30;99.90;;;;;;5003303;28;20201;-46
2020/12/20 02:58:33;;;;;;;5.17;4.43;;;6.30;99.90;;;;;;4988068;28;20181;-44
2020/12/20 03:00:59;;;;;;;6.57;3.80;;;6.30;99.90;;;;;;5004636;28;20642;-46
2020/12/20 03:03:24;;;;;;;5.53;4.20;;;6.20;99.90;;;;;;4997361;28;20219;-48
2020/12/20 03:05:50;;;;;;;4.70;4.23;;;6.20;99.90;;;;;;4995370;28;20192;-46
2020/12/20 03:08:15;;;;;;;5.03;4.10;;;6.20;99.90;;;;;;4994691;28;20175;-49
2020/12/20 03:10:41;;;;;;;5.10;4.50;;;6.20;99.90;;;;;;4997518;28;20272;-47
2020/12/20 03:13:06;;;;;;;5.13;4.23;;;6.20;99.90;;;;;;5004772;28;20546;-48
2020/12/20 03:15:32;;;;;;;4.60;4.13;;;6.20;99.90;;;;;;4987530;28;20209;-47
2020/12/20 03:17:57;;;;;;;5.67;4.67;;;6.20;99.90;;;;;;5000029;28;20192;-48
2020/12/20 03:20:23;;;;;;;5.37;4.40;;;6.20;99.90;;;;;;5001889;28;20191;-48
2020/12/20 03:22:48;;;;;;;5.70;4.57;;;6.20;99.90;;;;;;4986722;28;20200;-48
2020/12/20 03:25:14;;;;;;;6.63;4.83;;;6.30;99.90;;;;;;4995375;28;20202;-45
2020/12/20 03:27:40;;;;;;;5.37;4.30;;;6.20;99.90;;;;;;4982654;28;20181;-50
2020/12/20 03:30:05;;;;;;;5.60;4.27;;;6.30;99.90;;;;;;4988045;28;20203;-50
2020/12/20 03:32:31;;;;;;;4.97;3.80;;;6.30;99.90;;;;;;4999919;28;20191;-51
2020/12/20 03:34:57;;;;;;;6.00;4.57;;;6.30;99.90;;;;;;5003994;28;20279;-47
2020/12/20 03:37:23;;;;;;;5.40;4.50;;;6.30;99.90;;;;;;4996106;28;20220;-50
2020/12/20 03:39:48;;;;;;;4.73;4.17;;;6.30;99.90;;;;;;4990337;28;20193;-47
2020/12/20 03:42:13;;;;;;;5.23;4.13;;;6.30;99.90;;;;;;4999304;28;20208;-49
2020/12/20 03:44:39;;;;;;;6.07;4.23;;;6.40;99.90;;;;;;4988977;28;20216;-47
2020/12/20 03:47:04;;;;;;;6.73;4.50;;;6.40;99.90;;;;;;4999675;28;20699;-47
2020/12/20 03:49:30;;;;;;;4.97;4.47;;;6.40;99.90;;;;;;5000022;28;20200;-49
2020/12/20 03:51:56;;;;;;;4.90;3.87;;;6.50;99.90;;;;;;4999404;28;20198;-45
2020/12/20 03:54:21;;;;;;;4.60;4.20;;;6.50;99.90;;;;;;4992231;28;20903;-49
2020/12/20 03:56:47;;;;;;;5.40;4.37;;;6.50;99.90;;;;;;4991793;28;20201;-47
2020/12/20 03:59:12;;;;;;;4.17;3.77;;;6.60;99.90;;;;;;4990207;28;20203;-52
2020/12/20 04:01:38;;;;;;;4.53;4.13;;;6.60;99.90;;;;;;4991718;28;20969;-47
2020/12/20 04:04:03;;;;;;;4.33;3.97;;;6.60;99.90;;;;;;5002005;28;20247;-44
2020/12/20 04:06:28;;;;;;;4.83;4.00;;;6.60;99.90;;;;;;4999726;28;20161;-48
2020/12/20 04:08:54;;;;;;;4.73;4.23;;;6.60;99.90;;;;;;4997992;28;20182;-48
2020/12/20 04:11:19;;;;;;;4.80;4.40;;;6.60;99.90;;;;;;4982614;28;20185;-52
2020/12/20 04:13:45;;;;;;;9.13;5.03;;;6.50;99.90;;;;;;4991088;28;20920;-45
2020/12/20 04:16:11;;;;;;;5.30;3.97;;;6.50;99.90;;;;;;4989839;28;20253;-49
2020/12/20 04:18:37;;;;;;;4.77;3.93;;;6.50;99.90;;;;;;5000692;28;20259;-47
2020/12/20 04:21:03;;;;;;;4.67;4.27;;;6.50;99.90;;;;;;5003639;28;20533;-47
2020/12/20 04:23:29;;;;;;;5.23;4.73;;;6.50;99.90;;;;;;4999701;28;20852;-44
2020/12/20 04:25:54;;;;;;;4.40;3.87;;;6.50;99.90;;;;;;4996069;28;20284;-46
2020/12/20 04:28:20;;;;;;;6.17;4.37;;;6.50;99.90;;;;;;4994884;28;20210;-53
2020/12/20 04:30:47;;;;;;;5.30;4.40;;;6.50;99.90;;;;;;4976023;28;20311;-50
2020/12/20 04:33:12;;;;;;;4.83;3.70;;;6.50;99.90;;;;;;4996957;28;20279;-50
2020/12/20 04:35:38;;;;;;;7.07;4.23;;;6.60;99.90;;;;;;5000671;28;20223;-45
2020/12/20 04:38:04;;;;;;;5.90;3.77;;;6.50;99.90;;;;;;5000804;28;20196;-45
2020/12/20 04:40:29;;;;;;;7.07;4.57;;;6.60;99.90;;;;;;4989696;28;20212;-44
2020/12/20 04:43:01;;;;;;;6.63;4.20;;;6.60;99.90;;;;;;4984246;28;20300;-47
2020/12/20 04:45:27;;;;;;;4.60;4.20;;;6.60;99.90;;;;;;4987728;28;20227;-48
2020/12/20 04:47:56;;;;;;;5.63;4.63;;;6.60;99.90;;;;;;4984423;28;20220;-46
2020/12/20 04:50:22;;;;;;;5.40;4.17;;;6.70;99.90;;;;;;4999911;28;20181;-53
2020/12/20 04:52:49;;;;;;;4.57;4.10;;;6.70;99.90;;;;;;4999664;28;20235;-46
2020/12/20 04:55:15;;;;;;;5.53;4.67;;;6.70;99.90;;;;;;5001601;28;20196;-48
2020/12/20 04:57:42;;;;;;;4.60;4.20;;;6.70;99.90;;;;;;4993404;28;20212;-44
2020/12/20 05:00:07;;;;;;;4.70;4.30;;;6.70;99.90;;;;;;4992474;28;20197;-50
2020/12/20 05:02:33;;;;;;;4.40;3.93;;;6.70;99.90;;;;;;4976393;28;20409;-46
2020/12/20 05:04:59;;;;;;;4.80;4.23;;;6.80;99.90;;;;;;4983046;28;20198;-49
2020/12/20 05:07:25;;;;;;;5.50;4.57;;;6.70;99.90;;;;;;4984978;28;20201;-51
2020/12/20 05:09:50;;;;;;;6.10;4.60;;;6.80;99.90;;;;;;4994365;28;20181;-46
2020/12/20 05:12:30;;;;;;;4.83;3.90;;;6.80;99.90;;;;;;4998318;28;20652;-52
2020/12/20 05:14:55;;;;;;;5.67;3.97;;;6.80;99.90;;;;;;4991758;28;20208;-44
2020/12/20 05:17:21;;;;;;;7.23;4.80;;;6.80;99.90;;;;;;4984060;28;20196;-51
2020/12/20 05:19:47;;;;;;;6.07;3.97;;;6.90;99.90;;;;;;4996514;28;20268;-44
2020/12/20 05:22:21;;;;;;;5.83;4.33;;;6.90;99.90;;;;;;5000603;28;20291;-46
2020/12/20 05:24:49;;;;;;;4.47;4.07;;;6.90;99.90;;;;;;4995742;28;20201;-48
2020/12/20 05:27:30;;;;;;;4.83;4.37;;;6.90;99.90;;;;;;4981767;28;20650;-50
2020/12/20 05:30:15;;;;;;;5.23;4.30;;;6.90;99.90;;;;;;4989627;28;20219;-45
2020/12/20 05:32:43;;;;;;;4.07;3.67;;;7.00;99.90;;;;;;4981010;28;20189;-49
2020/12/20 05:35:14;;;;;;;5.43;3.57;;;6.90;99.90;;;;;;5002655;28;20228;-51
2020/12/20 05:37:41;;;;;;;4.03;3.60;;;6.90;99.90;;;;;;4995388;28;20247;-45
2020/12/20 05:40:08;;;;;;;4.33;3.93;;;7.00;99.90;;;;;;4996827;28;20205;-47
2020/12/20 05:42:34;;;;;;;7.80;4.00;;;7.00;99.90;;;;;;4991092;28;20203;-44
2020/12/20 05:45:11;;;;;;;4.93;3.83;;;7.00;99.90;;;;;;4990072;28;20208;-45
2020/12/20 05:47:39;;;;;;;4.60;4.03;;;7.00;99.90;;;;;;4982411;28;20201;-47
2020/12/20 05:50:05;;;;;;;5.03;4.07;;;7.00;99.90;;;;;;5003843;28;20188;-52
2020/12/20 05:52:31;;;;;;;5.20;4.17;;;7.00;99.90;;;;;;5004059;28;20926;-47
2020/12/20 05:54:57;;;;;;;4.60;4.10;;;7.10;99.90;;;;;;5000986;28;20224;-45
2020/12/20 05:57:23;;;;;;;4.60;4.20;;;7.10;99.90;;;;;;4984876;28;20181;-48
2020/12/20 05:59:52;;;;;;;4.47;4.00;;;7.10;99.90;;;;;;4993274;28;20207;-49
2020/12/20 06:02:18;;;;;;;3.93;3.63;;;7.10;99.90;;;;;;4993057;28;20219;-47
2020/12/20 06:04:45;;;;;;;6.00;4.80;;;7.10;99.90;;;;;;4976743;28;20242;-49
2020/12/20 06:07:13;;;;;;;4.23;3.83;;;7.10;99.90;;;;;;4991614;28;20185;-52
2020/12/20 06:09:56;;;;;;;4.67;3.70;;;7.10;99.90;;;;;;4998411;28;20187;-50
2020/12/20 06:12:29;;;;;;;4.83;3.43;;;7.10;99.90;;;;;;4999954;28;20204;-49
2020/12/20 06:14:56;;;;;;;5.97;4.40;;;7.20;99.90;;;;;;4992434;28;20244;-51
2020/12/20 06:17:23;;;;;;;5.97;3.90;;;7.20;99.90;;;;;;4993408;28;20172;-51
2020/12/20 06:20:02;;;;;;;5.87;4.50;;;7.20;99.90;;;;;;4982584;28;20692;-48
2020/12/20 06:22:34;;;;;;;4.13;3.73;;;7.20;99.90;;;;;;4994136;28;20231;-47
2020/12/20 06:25:01;;;;;;;6.10;3.70;;;7.20;99.90;;;;;;4995576;28;20212;-51
2020/12/20 06:27:29;;;;;;;4.47;4.07;;;7.20;99.90;;;;;;5002412;28;20173;-45
2020/12/20 06:29:57;;;;;;;4.90;3.73;;;7.20;99.90;;;;;;4977415;28;20194;-45
2020/12/20 06:32:26;;;;;;;4.73;4.27;;;7.20;99.90;;;;;;4985617;28;20547;-47
2020/12/20 06:34:52;;;;;;;4.47;3.97;;;7.30;99.90;;;;;;4976850;28;20216;-50
2020/12/20 06:37:18;;;;;;;5.13;4.13;;;7.20;99.90;;;;;;4996425;28;20208;-48
2020/12/20 06:39:44;;;;;;;5.23;3.77;;;7.30;99.90;;;;;;4991125;28;20196;-48
2020/12/20 06:42:09;;;;;;;4.73;3.93;;;7.20;99.90;;;;;;4985831;28;20980;-45
2020/12/20 06:44:35;;;;;;;4.43;3.77;;;7.20;99.90;;;;;;5004997;28;20291;-48
2020/12/20 06:47:01;;;;;;;5.43;4.30;;;7.20;99.90;;;;;;4987934;28;20182;-46
2020/12/20 06:49:39;;;;;;;5.20;4.50;;;7.20;99.90;;;;;;4994218;28;20555;-47
2020/12/20 06:52:17;;;;;;;4.27;3.87;;;7.20;99.90;;;;;;4985903;28;20253;-49
2020/12/20 06:54:59;;;;;;;3.97;3.67;;;7.20;99.90;;;;;;4994550;28;20219;-50
2020/12/20 06:57:24;;;;;;;5.43;4.60;;;7.20;99.90;;;;;;4984992;28;20204;-46
2020/12/20 06:59:50;;;;;;;5.87;4.70;;;7.20;99.90;;;;;;5003754;28;20187;-49
2020/12/20 07:02:42;;;;;;;4.93;4.43;;;7.20;99.90;;;;;;4985463;28;20216;-49
2020/12/20 07:05:34;;;;;;;5.60;4.07;;;7.20;99.90;;;;;;4986272;28;20730;-51
2020/12/20 07:08:11;;;;;;;5.23;4.30;;;7.10;99.90;;;;;;4987597;28;20317;-52
2020/12/20 07:10:46;;;;;;;4.70;4.27;;;7.10;99.90;;;;;;4989629;28;22080;-52
2020/12/20 07:13:14;;;;;;;4.47;3.93;;;7.10;99.90;;;;;;4985548;28;20204;-48
2020/12/20 07:15:51;;;;;;;5.63;4.33;;;7.10;99.90;;;;;;4993474;28;20216;-50
2020/12/20 07:18:59;;;;;;;4.57;4.17;;;7.10;99.90;;;;;;4982715;28;20223;-49
2020/12/20 07:21:24;;;;;;;6.27;4.43;;;7.10;99.90;;;;;;4975903;28;20271;-46
2020/12/20 07:24:01;;;;;;;6.27;4.80;;;7.10;99.90;;;;;;4984789;28;20193;-51
2020/12/20 07:26:27;;;;;;;7.13;4.77;;;7.10;99.90;;;;;;4981517;28;20189;-47
2020/12/20 07:29:03;;;;;;;6.23;4.07;;;7.10;99.90;;;;;;4992823;28;20197;-51
2020/12/20 07:31:29;;;;;;;4.83;4.33;;;7.10;99.90;;;;;;5000998;28;20266;-44
2020/12/20 07:33:55;;;;;;;4.33;3.93;;;7.10;99.90;;;;;;4990417;28;20591;-47
2020/12/20 07:36:21;;;;;;;5.67;4.23;;;7.10;99.90;;;;;;4969389;28;20283;-48
2020/12/20 07:38:47;;;;;;;4.43;3.97;;;7.10;99.90;;;;;;4992240;28;20184;-45
2020/12/20 07:41:14;;;;;;;4.67;3.87;;;7.10;99.90;;;;;;4990051;28;20169;-44
2020/12/20 07:43:40;;;;;;;6.67;4.40;;;7.10;99.90;;;;;;4998466;28;20216;-45
2020/12/20 07:46:07;;;;;;;5.80;4.37;;;7.10;99.90;;;;;;5000950;28;20255;-49
2020/12/20 07:48:33;;;;;;;7.33;4.83;;;7.10;99.90;;;;;;5003435;28;20183;-45
2020/12/20 07:51:15;;;;;;;6.37;4.10;;;7.10;99.90;;;;;;4984438;28;20258;-52
2020/12/20 07:53:48;;;;;;;4.50;4.10;;;7.10;99.90;;;;;;4986075;28;20746;-46
2020/12/20 07:56:27;;;;;;;5.20;4.27;;;7.10;99.90;;;;;;4992340;28;20205;-46
2020/12/20 07:58:56;;;;;;;5.17;4.33;;;7.20;99.90;;;;;;4998708;28;20208;-52
2020/12/20 08:01:22;;;;;;;5.63;4.60;;;7.20;99.90;;;;;;4999362;28;20188;-47
2020/12/20 08:03:47;;;;;;;4.33;3.93;;;7.20;99.90;;;;;;5004372;28;20180;-44
2020/12/20 08:06:15;;;;;;;5.10;4.57;;;7.20;99.90;;;;;;4980316;28;20883;-46
2020/12/20 08:08:41;;;;;;;4.87;4.37;;;7.20;99.90;;;;;;4977599;28;20702;-49
2020/12/20 08:11:26;;;;;;;5.07;4.67;;;7.20;99.90;;;;;;4980726;28;20184;-51
2020/12/20 08:13:57;;;;;;;5.00;4.33;;;7.20;99.90;;;;;;4990260;28;20194;-51
2020/12/20 08:16:30;;;;;;;8.27;4.83;;;7.20;99.90;;;;;;4999723;28;20216;-44
2020/12/20 08:18:58;;;;;;;5.93;4.47;;;7.20;99.90;;;;;;4998510;28;20185;-52
2020/12/20 08:21:35;;;;;;;5.43;4.17;;;7.20;99.90;;;;;;4979321;28;20919;-48
2020/12/20 08:24:00;;;;;;;4.77;4.37;;;7.20;99.90;;;;;;4974615;28;20197;-47
2020/12/20 08:26:30;;;;;;;4.97;4.47;;;7.20;99.90;;;;;;4990152;28;20994;-47
2020/12/20 08:28:57;;;;;;;6.10;4.20;;;7.30;99.90;;;;;;4981739;28;20193;-50
2020/12/20 08:31:26;;;;;;;4.67;3.77;;;7.30;99.90;;;;;;4997684;28;20184;-48
2020/12/20 08:33:51;;;;;;;5.73;4.63;;;7.30;99.90;;;;;;4981957;28;20204;-51
2020/12/20 08:36:20;;;;;;;5.10;4.60;;;7.30;99.90;;;;;;4975449;28;20189;-52
2020/12/20 08:38:46;;;;;;;5.13;4.63;;;7.30;99.90;;;;;;4985461;28;20193;-48
2020/12/20 08:41:22;;;;;;;5.57;5.07;;;7.30;99.90;;;;;;4986188;28;20180;-47
2020/12/20 08:43:47;;;;;;;6.67;4.27;;;7.30;99.90;;;;;;5003996;28;20596;-45
2020/12/20 08:46:30;;;;;;;4.77;4.37;;;7.30;99.90;;;;;;4996503;28;20205;-50
2020/12/20 08:49:19;;;;;;;6.03;4.33;;;7.30;99.90;;;;;;5002232;28;20265;-52
2020/12/20 08:51:49;;;;;;;5.20;4.70;;;7.30;99.90;;;;;;4991145;28;20247;-47
2020/12/20 08:54:30;;;;;;;5.43;4.50;;;7.30;99.90;;;;;;4983495;28;20216;-49
2020/12/20 08:57:03;;;;;;;5.93;5.00;;;7.30;99.90;;;;;;4986149;28;20264;-52
2020/12/20 08:59:34;;;;;;;4.70;4.27;;;7.30;99.90;;;;;;5002592;28;20219;-46
2020/12/20 09:02:01;;;;;;;5.43;4.27;;;7.30;99.90;;;;;;4996577;28;20299;-52
2020/12/20 09:04:28;;;;;;;4.90;4.47;;;7.40;99.90;;;;;;5000259;28;20185;-45
2020/12/20 09:07:02;;;;;;;6.73;4.23;;;7.30;99.90;;;;;;5001997;28;20177;-52
2020/12/20 09:09:29;;;;;;;5.63;5.13;;;7.40;99.90;;;;;;4983637;28;20196;-45
2020/12/20 09:12:08;;;;;;;5.67;4.60;;;7.40;99.90;;;;;;4988969;28;20200;-51
2020/12/20 09:14:33;;;;;;;5.50;5.00;;;7.40;99.90;;;;;;5001295;28;20200;-47
2020/12/20 09:16:59;;;;;;;7.20;4.97;;;7.40;99.90;;;;;;4995920;28;20219;-50
2020/12/20 09:19:24;;;;;;;6.20;4.33;;;7.40;99.90;;;;;;5000251;28;20259;-49
2020/12/20 09:21:50;;;;;;;6.60;4.77;;;7.50;99.90;;;;;;5000457;28;20218;-52
2020/12/20 09:24:15;;;;;;;5.40;4.90;;;7.50;99.90;;;;;;4993824;28;20232;-49
2020/12/20 09:26:40;;;;;;;5.90;4.80;;;7.50;99.90;;;;;;4977541;28;20733;-45
2020/12/20 09:29:07;;;;;;;5.23;4.73;;;7.50;99.90;;;;;;4988640;28;20199;-49
2020/12/20 09:31:33;;;;;;;5.23;4.57;;;7.50;99.90;;;;;;5002014;28;20189;-45
2020/12/20 09:34:01;;;;;;;7.00;4.77;;;7.50;99.90;;;;;;4997747;28;20182;-50
2020/12/20 09:36:26;;;;;;;7.83;5.40;;;7.60;99.90;;;;;;5003302;28;20246;-46
2020/12/20 09:39:02;;;;;;;6.17;5.47;;;7.60;99.90;;;;;;4986764;28;20196;-51
2020/12/20 09:41:29;;;;;;;4.97;4.47;;;7.60;99.90;;;;;;4982076;28;21193;-48
2020/12/20 09:43:56;;;;;;;6.50;4.73;;;7.60;99.90;;;;;;4994234;28;20248;-48
2020/12/20 09:46:33;;;;;;;5.30;4.80;;;7.60;99.90;;;;;;4999203;28;20233;-45
2020/12/20 09:48:59;;;;;;;5.33;4.83;;;7.60;99.90;;;;;;4992101;28;20264;-47
2020/12/20 09:51:26;;;;;;;6.97;4.70;;;7.60;99.90;;;;;;4992946;28;20183;-52
2020/12/20 09:53:53;;;;;;;6.43;5.00;;;7.60;99.90;;;;;;4986221;28;20177;-47
2020/12/20 09:56:18;;;;;;;6.07;4.90;;;7.70;99.90;;;;;;4994298;28;20185;-47
2020/12/20 09:58:45;;;;;;;6.03;5.47;;;7.70;99.90;;;;;;4988261;28;20279;-47
2020/12/20 10:01:25;;;;;;;5.33;4.70;;;7.70;99.90;;;;;;5001208;28;20613;-45
2020/12/20 10:03:51;;;;;;;6.47;5.10;;;7.70;99.90;;;;;;4999785;28;20195;-47
2020/12/20 10:06:17;;;;;;;4.67;4.17;;;7.70;99.90;;;;;;5004103;28;20188;-47
2020/12/20 10:08:43;;;;;;;5.73;5.13;;;7.80;99.90;;;;;;4985699;28;20200;-44
2020/12/20 10:11:09;;;;;;;5.37;4.77;;;7.80;99.90;;;;;;4997916;28;20359;-45
2020/12/20 10:13:35;;;;;;;7.60;5.30;;;7.80;99.90;;;;;;4979534;28;20272;-46
2020/12/20 10:16:01;;;;;;;6.40;5.20;;;7.90;99.90;;;;;;5005851;28;20660;-48
2020/12/20 10:18:26;;;;;;;6.67;4.93;;;7.90;99.90;;;;;;5000987;28;20175;-49
2020/12/20 10:20:52;;;;;;;5.53;4.93;;;7.90;99.90;;;;;;5002104;28;20256;-48
2020/12/20 10:23:17;;;;;;;6.30;5.27;;;7.90;99.90;;;;;;5004827;28;20209;-50
2020/12/20 10:25:42;;;;;;;6.73;4.93;;;8.00;99.90;;;;;;4985372;28;20225;-46
2020/12/20 10:28:09;;;;;;;6.87;5.07;;;8.00;99.90;;;;;;4987704;28;20546;-46
2020/12/20 10:30:34;;;;;;;5.53;5.03;;;8.10;99.90;;;;;;4998916;28;20180;-50
2020/12/20 10:33:00;;;;;;;6.03;5.07;;;8.10;99.90;;;;;;5005265;28;20177;-50
2020/12/20 10:35:27;;;;;;;5.80;5.30;;;8.10;99.90;;;;;;4998551;28;20670;-48
2020/12/20 10:37:54;;;;;;;6.00;5.40;;;8.10;99.90;;;;;;5003961;28;20223;-45
2020/12/20 10:40:20;;;;;;;6.10;5.50;;;8.20;99.90;;;;;;4988716;28;20196;-48
2020/12/20 10:42:46;;;;;;;8.57;5.33;;;8.20;99.90;;;;;;4991264;28;20213;-47
2020/12/20 10:45:13;;;;;;;6.97;5.23;;;8.20;99.90;;;;;;4989640;28;20212;-49
2020/12/20 10:47:39;;;;;;;6.03;5.43;;;8.30;99.90;;;;;;5000918;28;20424;-46
2020/12/20 10:50:05;;;;;;;6.43;4.80;;;8.30;99.90;;;;;;4991484;28;20725;-46
2020/12/20 10:52:30;;;;;;;7.13;5.93;;;8.30;99.90;;;;;;4989322;28;20820;-49
2020/12/20 10:54:56;;;;;;;8.17;5.00;;;8.30;99.90;;;;;;4994960;28;20206;-44
2020/12/20 10:57:21;;;;;;;5.43;4.93;;;8.30;99.90;;;;;;4982423;28;20185;-47
2020/12/20 10:59:47;;;;;;;6.13;5.53;;;8.30;99.90;;;;;;4978484;28;20962;-46
2020/12/20 11:02:12;;;;;;;6.97;5.23;;;8.30;99.90;;;;;;4997231;28;20203;-46
2020/12/20 11:04:38;;;;;;;6.50;5.23;;;8.30;99.90;;;;;;4981228;28;20792;-45
2020/12/20 11:07:04;;;;;;;6.00;5.40;;;8.30;99.90;;;;;;4987341;28;20207;-44
2020/12/20 11:09:30;;;;;;;5.50;5.00;;;8.30;99.90;;;;;;4990218;28;20185;-47
2020/12/20 11:11:56;;;;;;;6.57;5.30;;;8.30;99.90;;;;;;4990202;28;20278;-44
2020/12/20 11:14:22;;;;;;;5.47;4.90;;;8.30;99.90;;;;;;4988174;28;20228;-47
2020/12/20 11:16:52;;;;;;;7.23;5.60;;;8.30;99.90;;;;;;4988402;28;20189;-45
2020/12/20 11:19:19;;;;;;;7.60;5.30;;;8.30;99.90;;;;;;4995729;28;20172;-47
2020/12/20 11:21:55;;;;;;;7.17;5.47;;;8.30;99.90;;;;;;4988929;28;20892;-44
2020/12/20 11:24:21;;;;;;;5.70;5.20;;;8.30;99.90;;;;;;5003075;28;20250;-46
2020/12/20 11:26:48;;;;;;;6.53;5.23;;;8.30;99.90;;;;;;4990359;28;20185;-46
2020/12/20 11:29:14;;;;;;;6.17;5.50;;;8.30;99.90;;;;;;4989054;28;20192;-48
2020/12/20 11:31:40;;;;;;;7.43;6.10;;;8.30;99.90;;;;;;4989633;28;20189;-45
2020/12/20 11:34:06;;;;;;;6.27;5.60;;;8.30;99.90;;;;;;4995798;28;20257;-47
2020/12/20 11:36:33;;;;;;;7.07;5.90;;;8.30;99.90;;;;;;4997809;28;20345;-44
2020/12/20 11:38:59;;;;;;;6.53;5.30;;;8.40;99.90;;;;;;4999156;28;20199;-44
2020/12/20 11:41:30;;;;;;;5.97;5.37;;;8.40;99.90;;;;;;4990629;28;20185;-46
2020/12/20 11:43:56;;;;;;;7.33;5.73;;;8.40;99.90;;;;;;4989144;28;20193;-54
2020/12/20 11:46:22;;;;;;;7.67;6.07;;;8.50;99.90;;;;;;4977423;28;20200;-49
2020/12/20 11:48:48;;;;;;;7.37;6.23;;;8.50;99.90;;;;;;4992742;28;20503;-45
2020/12/20 11:51:15;;;;;;;7.07;5.60;;;8.50;99.90;;;;;;4991347;28;20875;-47
2020/12/20 11:53:41;;;;;;;8.50;6.20;;;8.50;99.90;;;;;;4999238;28;20278;-49
2020/12/20 11:56:07;;;;;;;8.03;6.30;;;8.50;99.90;;;;;;4991946;28;20236;-47
2020/12/20 11:58:33;;;;;;;9.73;6.60;;;8.50;99.90;;;;;;4988413;28;20273;-47
2020/12/20 12:00:59;;;;;;;6.83;6.13;;;8.50;99.90;;;;;;4975280;28;20519;-47
2020/12/20 12:03:25;;;;;;;9.20;6.97;;;8.50;99.90;;;;;;4992888;28;20212;-46
2020/12/20 12:05:51;;;;;;;8.60;5.77;;;8.50;99.90;;;;;;4990833;28;20197;-50
2020/12/20 12:08:16;;;;;;;8.17;6.57;;;8.50;99.90;;;;;;4986248;28;20231;-45
2020/12/20 12:10:43;;;;;;;6.33;5.70;;;8.50;99.90;;;;;;4984504;28;20344;-45
2020/12/20 12:13:10;;;;;;;7.57;6.57;;;8.50;99.90;;;;;;4983614;28;20174;-48
2020/12/20 12:15:37;;;;;;;7.47;6.47;;;8.50;99.90;;;;;;4991092;28;20227;-46
2020/12/20 12:18:02;;;;;;;6.37;5.77;;;8.50;99.90;;;;;;4973662;28;20401;-48
2020/12/20 12:20:28;;;;;;;10.23;7.17;;;8.50;99.90;;;;;;4996592;28;20638;-45
2020/12/20 12:22:54;;;;;;;7.97;6.70;;;8.50;99.90;;;;;;4989482;28;20204;-50
2020/12/20 12:25:19;;;;;;;9.07;6.30;;;8.50;99.90;;;;;;4990791;28;20212;-46
2020/12/20 12:27:45;;;;;;;6.53;5.90;;;8.50;99.90;;;;;;5003357;28;20642;-46
2020/12/20 12:30:11;;;;;;;6.87;6.17;;;8.50;99.90;;;;;;4984948;28;20838;-45
2020/12/20 12:32:37;;;;;;;9.57;6.63;;;8.50;99.90;;;;;;4977808;28;20743;-46
2020/12/20 12:35:04;;;;;;;8.33;7.00;;;8.50;99.90;;;;;;4992769;28;20197;-49
2020/12/20 12:37:30;;;;;;;11.57;7.50;;;8.50;99.90;;;;;;4994541;28;20180;-46
2020/12/20 12:39:55;;;;;;;9.63;7.63;;;8.50;99.90;;;;;;4989905;28;20197;-46
2020/12/20 12:42:21;;;;;;;7.33;6.50;;;8.50;99.90;;;;;;4995915;28;20205;-49
2020/12/20 12:44:46;;;;;;;8.33;7.43;;;8.50;99.90;;;;;;4989920;28;20288;-44
2020/12/20 12:47:12;;;;;;;7.40;6.70;;;8.50;99.90;;;;;;4985809;28;20260;-45
2020/12/20 12:49:38;;;;;;;8.20;7.00;;;8.50;99.90;;;;;;4977539;28;20280;-48
2020/12/20 12:52:04;;;;;;;8.50;6.90;;;8.50;99.90;;;;;;4993974;28;20185;-49
2020/12/20 12:54:29;;;;;;;7.70;6.87;;;8.60;99.90;;;;;;4994843;28;20709;-46
2020/12/20 12:56:57;;;;;;;7.67;6.63;;;8.60;99.90;;;;;;4979647;28;20696;-45
2020/12/20 12:59:24;;;;;;;8.20;6.73;;;8.60;99.90;;;;;;4986654;28;20274;-49